Time;durP1;ratioP1;P1;durP2;ratioP2;P2;SDS_P1;SDS_P2;PMS_P1;PMS_P2;Temp;Humidity;BMP_temperature;BMP_pressure;BME280_temperature;BME280_humidity;BME280_pressure;Samples;Min_cycle;Max_cycle;Signal;HPM_P1;HPM_P2
2021/05/03 00:00:20;;;;;;;6.73;2.80;;;4.50;99.90;;;;;;4148025;28;20462;-79
2021/05/03 00:02:22;;;;;;;4.43;3.33;;;4.50;99.90;;;;;;4143808;28;20465;-80
2021/05/03 00:04:23;;;;;;;6.50;3.57;;;4.50;99.90;;;;;;4148967;28;20498;-80
2021/05/03 00:06:24;;;;;;;5.50;3.20;;;4.50;99.90;;;;;;4157512;28;20473;-79
2021/05/03 00:08:26;;;;;;;6.33;3.50;;;4.60;99.90;;;;;;4147678;28;20470;-79
2021/05/03 00:10:27;;;;;;;6.80;3.50;;;4.60;99.90;;;;;;4156979;28;20502;-80
2021/05/03 00:12:30;;;;;;;7.30;3.57;;;4.50;99.90;;;;;;4148474;28;20463;-79
2021/05/03 00:14:31;;;;;;;5.93;3.20;;;4.50;99.90;;;;;;4170750;22;20505;-75
2021/05/03 00:16:32;;;;;;;5.97;3.20;;;4.50;99.90;;;;;;4150537;28;20471;-74
2021/05/03 00:18:34;;;;;;;6.40;3.10;;;4.50;99.90;;;;;;4148064;28;20601;-75
2021/05/03 00:20:35;;;;;;;5.17;3.40;;;4.50;99.90;;;;;;4145978;28;20902;-77
2021/05/03 00:22:36;;;;;;;5.97;3.30;;;4.60;99.90;;;;;;4145405;28;20474;-75
2021/05/03 00:24:38;;;;;;;5.80;3.10;;;4.50;99.90;;;;;;4141075;28;20492;-75
2021/05/03 00:26:39;;;;;;;5.73;2.90;;;4.60;99.90;;;;;;4142493;28;20486;-75
2021/05/03 00:28:42;;;;;;;4.23;2.80;;;4.60;99.90;;;;;;4148107;28;20475;-75
2021/05/03 00:30:43;;;;;;;3.97;2.83;;;4.60;99.90;;;;;;4151387;28;20482;-75
2021/05/03 00:32:44;;;;;;;4.63;3.10;;;4.70;99.90;;;;;;4148268;28;20475;-74
2021/05/03 00:34:46;;;;;;;4.60;3.03;;;4.60;99.90;;;;;;4152512;28;20916;-75
2021/05/03 00:36:47;;;;;;;5.80;3.03;;;4.60;99.90;;;;;;4152082;28;20492;-75
2021/05/03 00:38:48;;;;;;;4.97;2.80;;;4.60;99.90;;;;;;4146296;28;20489;-75
2021/05/03 00:40:50;;;;;;;6.10;3.30;;;4.60;99.90;;;;;;4145086;28;20524;-76
2021/05/03 00:42:51;;;;;;;5.03;3.20;;;4.60;99.90;;;;;;4141863;28;20478;-75
2021/05/03 00:44:53;;;;;;;7.30;2.93;;;4.60;99.90;;;;;;4145177;28;20483;-75
2021/05/03 00:46:56;;;;;;;4.27;3.00;;;4.60;99.90;;;;;;4153591;28;20478;-75
2021/05/03 00:48:57;;;;;;;5.20;2.40;;;4.60;99.90;;;;;;4144412;28;20520;-77
2021/05/03 00:50:59;;;;;;;5.63;2.83;;;4.60;99.90;;;;;;4149139;28;20475;-75
2021/05/03 00:53:00;;;;;;;5.13;3.37;;;4.60;99.90;;;;;;4151736;28;20920;-75
2021/05/03 00:55:02;;;;;;;7.57;3.37;;;4.60;99.90;;;;;;4144382;28;20471;-76
2021/05/03 00:57:03;;;;;;;5.57;2.97;;;4.60;99.90;;;;;;4145085;28;20816;-75
2021/05/03 00:59:04;;;;;;;5.00;2.90;;;4.70;99.90;;;;;;4140535;28;20472;-76
2021/05/03 01:01:06;;;;;;;5.13;2.93;;;4.70;99.90;;;;;;4135146;28;20458;-75
2021/05/03 01:03:08;;;;;;;5.23;2.73;;;4.70;99.90;;;;;;4145964;28;20524;-74
2021/05/03 01:05:10;;;;;;;5.43;2.70;;;4.70;99.90;;;;;;4148489;28;20481;-78
2021/05/03 01:07:11;;;;;;;5.30;2.73;;;4.70;99.90;;;;;;4140258;28;20694;-75
2021/05/03 01:09:13;;;;;;;5.77;2.60;;;4.70;99.90;;;;;;4150102;28;20504;-75
2021/05/03 01:11:14;;;;;;;5.53;2.90;;;4.70;99.90;;;;;;4152094;28;20532;-75
2021/05/03 01:13:15;;;;;;;5.73;2.30;;;4.80;99.90;;;;;;4146325;28;20505;-80
2021/05/03 01:15:22;;;;;;;3.93;3.00;;;4.80;99.90;;;;;;4152053;28;20951;-77
2021/05/03 01:17:31;;;;;;;5.60;2.80;;;4.80;99.90;;;;;;4140667;28;20543;-74
2021/05/03 01:19:33;;;;;;;4.73;2.73;;;4.80;99.90;;;;;;4147374;28;20446;-76
2021/05/03 01:21:35;;;;;;;4.87;2.80;;;4.80;99.90;;;;;;4158184;28;20483;-75
2021/05/03 01:23:38;;;;;;;9.47;2.90;;;4.80;99.90;;;;;;4161509;28;20493;-75
2021/05/03 01:25:41;;;;;;;7.80;2.90;;;4.80;99.90;;;;;;4143540;28;20837;-74
2021/05/03 01:27:43;;;;;;;5.13;3.07;;;4.80;99.90;;;;;;4147789;28;20542;-76
2021/05/03 01:29:44;;;;;;;5.07;2.93;;;4.90;99.90;;;;;;4146612;28;21042;-75
2021/05/03 01:31:49;;;;;;;3.70;2.80;;;4.90;99.90;;;;;;4147813;28;21023;-76
2021/05/03 01:33:51;;;;;;;6.80;2.73;;;4.90;99.90;;;;;;4133055;28;20656;-75
2021/05/03 01:35:52;;;;;;;5.57;2.53;;;4.80;99.90;;;;;;4139331;28;20483;-74
2021/05/03 01:37:56;;;;;;;3.87;2.50;;;4.80;99.90;;;;;;4137518;28;20454;-75
2021/05/03 01:39:57;;;;;;;7.70;2.93;;;4.80;99.90;;;;;;4147113;28;20475;-74
2021/05/03 01:41:58;;;;;;;5.33;3.10;;;4.80;99.90;;;;;;4155289;28;20471;-74
2021/05/03 01:43:59;;;;;;;5.10;2.80;;;4.80;99.90;;;;;;4151899;28;20498;-76
2021/05/03 01:46:02;;;;;;;5.50;3.00;;;4.80;99.90;;;;;;4147222;28;20466;-74
2021/05/03 01:48:04;;;;;;;5.10;2.53;;;4.80;99.90;;;;;;4156640;28;20458;-74
2021/05/03 01:50:07;;;;;;;4.77;2.23;;;4.80;99.90;;;;;;4145394;28;20499;-75
2021/05/03 01:52:10;;;;;;;5.57;3.23;;;4.70;99.90;;;;;;4144617;28;20949;-74
2021/05/03 01:54:14;;;;;;;4.20;2.63;;;4.70;99.90;;;;;;4139019;28;20490;-75
2021/05/03 01:56:16;;;;;;;8.17;4.00;;;4.70;99.90;;;;;;4143649;28;20469;-75
2021/05/03 01:58:17;;;;;;;5.53;2.77;;;4.60;99.90;;;;;;4147689;28;20976;-74
2021/05/03 02:00:19;;;;;;;3.30;2.17;;;4.60;99.90;;;;;;4149972;28;20521;-76
2021/05/03 02:02:20;;;;;;;6.10;2.47;;;4.60;99.90;;;;;;4151137;28;20469;-75
2021/05/03 02:04:22;;;;;;;8.07;2.70;;;4.50;99.90;;;;;;4162012;28;20486;-75
2021/05/03 02:06:23;;;;;;;4.80;2.53;;;4.50;99.90;;;;;;4151327;28;20466;-75
2021/05/03 02:08:24;;;;;;;4.77;2.83;;;4.40;99.90;;;;;;4144243;28;20461;-75
2021/05/03 02:10:32;;;;;;;4.73;2.50;;;4.50;99.90;;;;;;4144822;28;20882;-74
2021/05/03 02:12:37;;;;;;;8.23;2.97;;;4.40;99.90;;;;;;4157111;28;20781;-74
2021/05/03 02:14:40;;;;;;;7.63;3.30;;;4.40;99.90;;;;;;4146367;28;20525;-78
2021/05/03 02:16:42;;;;;;;6.73;2.90;;;4.30;99.90;;;;;;4150819;28;20475;-75
2021/05/03 02:18:44;;;;;;;6.37;2.90;;;4.30;99.90;;;;;;4146803;28;20459;-75
2021/05/03 02:20:46;;;;;;;5.30;3.40;;;4.20;99.90;;;;;;4141456;28;20463;-74
2021/05/03 02:22:48;;;;;;;8.70;3.30;;;4.20;99.90;;;;;;4147110;28;20851;-74
2021/05/03 02:24:49;;;;;;;5.40;3.00;;;4.20;99.90;;;;;;4146797;28;20480;-74
2021/05/03 02:26:51;;;;;;;9.03;3.50;;;4.20;99.90;;;;;;4153158;28;20469;-75
2021/05/03 02:28:52;;;;;;;5.00;3.03;;;4.20;99.90;;;;;;4148419;28;20471;-74
2021/05/03 02:30:54;;;;;;;6.47;2.80;;;4.10;99.90;;;;;;4136952;28;20466;-74
2021/05/03 02:32:55;;;;;;;5.53;3.03;;;4.10;99.90;;;;;;4145915;28;20454;-75
2021/05/03 02:34:56;;;;;;;8.27;3.10;;;4.10;99.90;;;;;;4145915;28;20888;-74
2021/05/03 02:36:58;;;;;;;8.00;3.40;;;4.00;99.90;;;;;;4154730;28;20486;-74
2021/05/03 02:38:59;;;;;;;5.10;2.97;;;4.10;99.90;;;;;;4143790;28;20474;-74
2021/05/03 02:41:00;;;;;;;5.03;3.03;;;4.00;99.90;;;;;;4159875;28;20482;-76
2021/05/03 02:43:04;;;;;;;4.20;2.87;;;4.10;99.90;;;;;;4142190;28;20463;-74
2021/05/03 02:45:06;;;;;;;4.77;2.87;;;4.00;99.90;;;;;;4145413;28;20454;-73
2021/05/03 02:47:09;;;;;;;7.57;3.30;;;4.00;99.90;;;;;;4145188;28;20498;-73
2021/05/03 02:49:10;;;;;;;4.73;3.13;;;4.00;99.90;;;;;;4145165;28;20481;-73
2021/05/03 02:51:11;;;;;;;8.00;3.03;;;4.00;99.90;;;;;;4149889;28;20478;-74
2021/05/03 02:53:12;;;;;;;5.53;2.87;;;4.00;99.90;;;;;;4149025;28;20470;-73
2021/05/03 02:55:14;;;;;;;5.33;3.20;;;4.00;99.90;;;;;;4145062;28;20963;-73
2021/05/03 02:57:15;;;;;;;5.27;3.17;;;4.00;99.90;;;;;;4144263;28;20484;-74
2021/05/03 02:59:17;;;;;;;5.37;2.87;;;4.00;99.90;;;;;;4140001;28;20472;-73
2021/05/03 03:01:19;;;;;;;7.10;3.17;;;4.00;99.90;;;;;;4148857;28;20470;-72
2021/05/03 03:03:20;;;;;;;6.60;3.40;;;4.10;99.90;;;;;;4149758;28;20548;-73
2021/05/03 03:05:21;;;;;;;7.40;3.00;;;4.10;99.90;;;;;;4156988;28;21146;-72
2021/05/03 03:07:23;;;;;;;5.50;3.07;;;4.10;99.90;;;;;;4151777;28;20482;-72
2021/05/03 03:09:24;;;;;;;6.17;3.00;;;4.10;99.90;;;;;;4145728;28;20491;-73
2021/05/03 03:11:25;;;;;;;9.47;3.27;;;4.00;99.90;;;;;;4143212;28;20467;-73
2021/05/03 03:13:26;;;;;;;4.37;3.00;;;4.00;99.90;;;;;;4129881;28;20630;-73
2021/05/03 03:15:30;;;;;;;7.87;3.47;;;4.00;99.90;;;;;;4130302;28;20977;-72
2021/05/03 03:17:31;;;;;;;5.73;3.00;;;4.00;99.90;;;;;;4131293;28;20522;-73
2021/05/03 03:19:32;;;;;;;5.80;3.20;;;4.10;99.90;;;;;;4145653;28;20517;-73
2021/05/03 03:21:34;;;;;;;5.47;3.00;;;4.00;99.90;;;;;;4146807;28;20472;-73
2021/05/03 03:23:35;;;;;;;4.33;2.97;;;4.00;99.90;;;;;;4153536;28;20489;-73
2021/05/03 03:25:36;;;;;;;4.07;2.70;;;4.10;99.90;;;;;;4144681;28;20471;-73
2021/05/03 03:27:38;;;;;;;5.87;2.80;;;4.10;99.90;;;;;;4145778;28;20457;-74
2021/05/03 03:29:39;;;;;;;6.83;3.00;;;4.10;99.90;;;;;;4145320;28;20486;-73
2021/05/03 03:31:41;;;;;;;4.67;2.90;;;4.10;99.90;;;;;;4145538;28;20843;-74
2021/05/03 03:33:42;;;;;;;6.07;3.47;;;4.20;99.90;;;;;;4142322;28;20502;-74
2021/05/03 03:35:43;;;;;;;4.83;2.90;;;4.20;99.90;;;;;;4135088;28;20855;-73
2021/05/03 03:37:46;;;;;;;7.37;3.00;;;4.20;99.90;;;;;;4142742;28;20509;-73
2021/05/03 03:39:47;;;;;;;6.40;3.20;;;4.20;99.90;;;;;;4147071;28;20874;-73
2021/05/03 03:41:48;;;;;;;4.90;2.83;;;4.30;99.90;;;;;;4144193;28;20526;-73
2021/05/03 03:43:49;;;;;;;5.07;3.47;;;4.30;99.90;;;;;;4150902;28;20476;-72
2021/05/03 03:45:51;;;;;;;5.13;2.97;;;4.40;99.90;;;;;;4146528;28;20451;-73
2021/05/03 03:47:53;;;;;;;5.70;3.07;;;4.40;99.90;;;;;;4146343;28;20516;-73
2021/05/03 03:49:54;;;;;;;12.40;3.50;;;4.30;99.90;;;;;;4144031;28;20507;-72
2021/05/03 03:51:55;;;;;;;5.63;2.90;;;4.40;99.90;;;;;;4145669;28;20497;-74
2021/05/03 03:53:57;;;;;;;6.47;3.50;;;4.40;99.90;;;;;;4146817;28;20501;-74
2021/05/03 03:55:58;;;;;;;4.87;3.20;;;4.40;99.90;;;;;;4146557;28;20450;-73
2021/05/03 03:57:59;;;;;;;14.50;3.30;;;4.40;99.90;;;;;;4141223;28;20550;-74
2021/05/03 04:00:01;;;;;;;4.13;2.90;;;4.40;99.90;;;;;;4146807;28;20478;-74
2021/05/03 04:02:02;;;;;;;5.47;2.77;;;4.40;99.90;;;;;;4138885;28;20460;-75
2021/05/03 04:04:13;;;;;;;5.67;3.10;;;4.30;99.90;;;;;;4128859;28;20479;-74
2021/05/03 04:06:22;;;;;;;4.07;2.80;;;4.30;99.90;;;;;;4140298;28;20466;-75
2021/05/03 04:08:27;;;;;;;5.57;3.37;;;4.30;99.90;;;;;;4145799;28;20891;-74
2021/05/03 04:10:38;;;;;;;6.93;3.63;;;4.30;99.90;;;;;;4145393;28;20505;-76
2021/05/03 04:12:57;;;;;;;9.60;4.87;;;4.30;99.90;;;;;;4146593;28;20458;-74
2021/05/03 04:22:13;;;;;;;7.53;4.77;;;4.30;99.90;;;;;;4140474;28;20856;-76
2021/05/03 04:24:20;;;;;;;7.20;4.53;;;4.30;99.90;;;;;;4140259;28;20494;-74
2021/05/03 04:26:23;;;;;;;8.37;5.30;;;4.30;99.90;;;;;;4144032;28;20473;-75
2021/05/03 04:28:24;;;;;;;8.77;5.10;;;4.30;99.90;;;;;;4148799;28;20463;-75
2021/05/03 04:30:25;;;;;;;8.43;5.40;;;4.40;99.90;;;;;;4146997;28;20498;-75
2021/05/03 04:32:26;;;;;;;8.10;5.40;;;4.40;99.90;;;;;;4138852;28;20471;-75
2021/05/03 04:34:28;;;;;;;7.93;5.13;;;4.40;99.90;;;;;;4145386;28;20483;-73
2021/05/03 04:36:30;;;;;;;9.37;5.37;;;4.40;99.90;;;;;;4144497;28;20972;-75
2021/05/03 04:38:31;;;;;;;10.77;6.27;;;4.40;99.90;;;;;;4153939;28;20459;-75
2021/05/03 04:40:32;;;;;;;11.53;6.10;;;4.40;99.90;;;;;;4146657;28;20469;-75
2021/05/03 04:42:33;;;;;;;11.07;6.30;;;4.40;99.90;;;;;;4157927;28;20473;-73
2021/05/03 04:44:35;;;;;;;10.60;6.27;;;4.50;99.90;;;;;;4153898;28;20520;-74
2021/05/03 04:46:36;;;;;;;9.37;6.13;;;4.50;99.90;;;;;;4154727;28;20485;-75
2021/05/03 04:48:37;;;;;;;9.70;5.87;;;4.50;99.90;;;;;;4148295;28;20874;-74
2021/05/03 04:50:38;;;;;;;12.63;6.17;;;4.60;99.90;;;;;;4153450;28;20843;-74
2021/05/03 04:52:40;;;;;;;9.70;5.63;;;4.60;99.90;;;;;;4147734;28;20454;-74
2021/05/03 04:54:42;;;;;;;8.20;5.23;;;4.60;99.90;;;;;;4147941;28;20519;-76
2021/05/03 04:56:43;;;;;;;7.17;4.33;;;4.70;99.90;;;;;;4149518;28;20475;-74
2021/05/03 04:58:44;;;;;;;7.80;4.30;;;4.70;99.90;;;;;;4147362;28;20470;-75
2021/05/03 05:00:45;;;;;;;8.27;5.13;;;4.80;99.90;;;;;;4143090;28;20983;-75
2021/05/03 05:02:47;;;;;;;7.27;4.30;;;4.80;99.90;;;;;;4149285;28;20462;-75
2021/05/03 05:04:48;;;;;;;7.67;4.30;;;4.80;99.90;;;;;;4149921;28;20513;-75
2021/05/03 05:06:49;;;;;;;6.40;3.57;;;4.80;99.90;;;;;;4151406;28;20480;-75
2021/05/03 05:08:51;;;;;;;6.33;4.07;;;4.90;99.90;;;;;;4154730;28;20458;-74
2021/05/03 05:10:53;;;;;;;7.63;4.17;;;4.90;99.90;;;;;;4147226;28;20487;-74
2021/05/03 05:12:54;;;;;;;7.20;4.13;;;4.90;99.90;;;;;;4151495;28;20474;-75
2021/05/03 05:14:55;;;;;;;6.83;3.67;;;5.00;99.90;;;;;;4147595;28;20482;-73
2021/05/03 05:16:56;;;;;;;6.53;4.10;;;5.00;99.90;;;;;;4148983;28;20584;-75
2021/05/03 05:18:58;;;;;;;8.30;4.47;;;5.00;99.90;;;;;;4150297;28;20516;-76
2021/05/03 05:20:59;;;;;;;6.40;4.27;;;5.10;99.90;;;;;;4146697;28;20463;-75
2021/05/03 05:23:03;;;;;;;7.43;4.17;;;5.10;99.90;;;;;;4146184;28;21006;-75
2021/05/03 05:25:07;;;;;;;7.60;4.03;;;5.10;99.90;;;;;;4150942;28;20867;-75
2021/05/03 05:27:08;;;;;;;6.70;3.90;;;5.20;99.90;;;;;;4161762;28;20540;-74
2021/05/03 05:29:10;;;;;;;11.53;4.00;;;5.20;99.90;;;;;;4156468;28;20470;-75
2021/05/03 05:31:11;;;;;;;5.23;3.60;;;5.20;99.90;;;;;;4152386;28;20537;-74
2021/05/03 05:33:12;;;;;;;9.97;4.30;;;5.20;99.90;;;;;;4147552;28;20883;-74
2021/05/03 05:35:13;;;;;;;7.40;4.60;;;5.20;99.90;;;;;;4147990;28;20520;-75
2021/05/03 05:37:15;;;;;;;9.33;4.60;;;5.30;99.90;;;;;;4147564;28;20948;-74
2021/05/03 05:39:16;;;;;;;6.03;4.07;;;5.30;99.90;;;;;;4145816;28;20475;-74
2021/05/03 05:41:21;;;;;;;6.67;4.07;;;5.40;99.90;;;;;;4142321;28;20661;-75
2021/05/03 05:43:22;;;;;;;7.50;4.00;;;5.40;99.90;;;;;;4148512;28;20480;-74
2021/05/03 05:45:23;;;;;;;7.50;3.73;;;5.40;99.90;;;;;;4147588;28;20455;-75
2021/05/03 05:47:24;;;;;;;7.07;3.83;;;5.50;99.90;;;;;;4143600;28;20820;-75
2021/05/03 05:49:26;;;;;;;7.53;4.33;;;5.50;99.90;;;;;;4143341;28;20483;-75
2021/05/03 05:51:27;;;;;;;7.53;3.80;;;5.50;99.90;;;;;;4141826;28;20478;-75
2021/05/03 05:53:30;;;;;;;5.67;3.83;;;5.50;99.90;;;;;;4143386;28;20499;-75
2021/05/03 05:55:32;;;;;;;6.40;3.93;;;5.70;99.90;;;;;;4146109;28;20455;-75
2021/05/03 05:57:34;;;;;;;6.80;4.10;;;5.70;99.90;;;;;;4139331;28;20513;-75
2021/05/03 05:59:35;;;;;;;6.70;4.10;;;5.70;99.90;;;;;;4145832;28;20532;-74
2021/05/03 06:01:36;;;;;;;7.03;4.17;;;5.80;99.90;;;;;;4139737;28;21099;-74
2021/05/03 06:03:38;;;;;;;9.17;4.10;;;5.80;99.90;;;;;;4143001;28;20498;-75
2021/05/03 06:05:39;;;;;;;6.07;3.90;;;5.80;99.90;;;;;;4139830;28;20472;-73
2021/05/03 06:07:40;;;;;;;6.97;4.13;;;5.90;99.90;;;;;;4148461;28;20456;-72
2021/05/03 06:09:41;;;;;;;20.10;11.30;;;5.90;99.90;;;;;;4147698;28;20516;-73
2021/05/03 06:11:43;;;;;;;24.63;13.63;;;5.90;99.90;;;;;;4147314;28;20458;-73
2021/05/03 06:13:45;;;;;;;14.93;8.33;;;5.90;99.90;;;;;;4121943;28;20518;-74
2021/05/03 06:15:46;;;;;;;9.30;5.83;;;5.90;99.90;;;;;;4132758;28;20465;-72
2021/05/03 06:17:47;;;;;;;5.77;4.03;;;5.80;99.90;;;;;;4137063;28;20529;-72
2021/05/03 06:19:49;;;;;;;9.67;4.63;;;5.70;99.90;;;;;;4141332;28;20967;-73
2021/05/03 06:21:50;;;;;;;7.03;3.93;;;5.70;99.90;;;;;;4137088;28;20473;-72
2021/05/03 06:23:51;;;;;;;8.60;4.30;;;5.60;99.90;;;;;;4135023;28;20474;-72
2021/05/03 06:25:53;;;;;;;6.80;3.83;;;5.60;99.90;;;;;;4137889;28;20469;-73
2021/05/03 06:27:54;;;;;;;6.63;4.33;;;5.50;99.90;;;;;;4136245;28;20464;-72
2021/05/03 06:29:56;;;;;;;8.83;4.30;;;5.60;99.90;;;;;;4138688;28;20495;-74
2021/05/03 06:31:58;;;;;;;5.60;4.00;;;5.60;99.90;;;;;;4137679;28;20487;-73
2021/05/03 06:34:00;;;;;;;9.13;4.00;;;5.60;99.90;;;;;;4140189;28;20482;-72
2021/05/03 06:36:01;;;;;;;7.97;4.40;;;5.60;99.90;;;;;;4146032;28;20483;-73
2021/05/03 06:38:05;;;;;;;8.73;4.57;;;5.70;99.90;;;;;;4146697;28;20563;-72
2021/05/03 06:40:09;;;;;;;6.20;4.23;;;5.60;99.90;;;;;;4137344;28;20476;-72
2021/05/03 06:42:10;;;;;;;9.27;4.77;;;5.70;99.90;;;;;;4138558;28;20484;-73
2021/05/03 06:44:11;;;;;;;11.53;4.67;;;5.70;99.90;;;;;;4142046;28;20498;-74
2021/05/03 06:46:13;;;;;;;6.43;4.07;;;5.80;99.90;;;;;;4139640;28;20476;-73
2021/05/03 06:48:14;;;;;;;6.00;4.00;;;5.80;99.90;;;;;;4138492;28;20466;-73
2021/05/03 06:50:17;;;;;;;6.50;4.07;;;5.90;99.90;;;;;;4135475;28;20546;-74
2021/05/03 06:52:18;;;;;;;8.93;4.43;;;5.90;99.90;;;;;;4138760;28;20448;-75
2021/05/03 06:54:19;;;;;;;11.07;4.60;;;5.90;99.90;;;;;;4132941;28;20490;-72
2021/05/03 06:56:21;;;;;;;5.90;4.33;;;6.10;99.90;;;;;;4134680;28;20473;-72
2021/05/03 06:58:22;;;;;;;6.40;4.37;;;6.10;99.90;;;;;;4140421;28;20459;-74
2021/05/03 07:00:24;;;;;;;7.67;4.43;;;6.10;99.90;;;;;;4136566;28;20451;-73
2021/05/03 07:02:27;;;;;;;6.93;4.10;;;6.20;99.90;;;;;;4131586;28;20499;-73
2021/05/03 07:04:28;;;;;;;8.03;4.33;;;6.20;99.90;;;;;;4130747;28;20583;-74
2021/05/03 07:06:29;;;;;;;13.93;9.53;;;6.30;99.90;;;;;;4140672;28;20473;-74
2021/05/03 07:08:30;;;;;;;40.73;21.03;;;6.50;99.90;;;;;;4139250;28;21064;-73
2021/05/03 07:10:32;;;;;;;6.87;4.20;;;6.60;99.90;;;;;;4140797;28;20501;-73
2021/05/03 07:12:35;;;;;;;6.50;3.50;;;6.80;98.90;;;;;;4138501;28;20463;-73
2021/05/03 07:14:37;;;;;;;5.63;2.50;;;6.90;98.20;;;;;;4132317;28;20599;-76
2021/05/03 07:16:40;;;;;;;5.10;3.40;;;7.10;97.20;;;;;;4136629;28;20572;-74
2021/05/03 07:18:42;;;;;;;4.77;3.33;;;7.20;96.90;;;;;;4141571;28;20569;-72
2021/05/03 07:20:44;;;;;;;7.77;3.40;;;7.10;97.10;;;;;;4134468;28;20469;-72
2021/05/03 07:22:45;;;;;;;3.93;3.10;;;7.10;97.20;;;;;;4141145;28;20517;-75
2021/05/03 07:24:47;;;;;;;5.97;3.33;;;7.10;97.10;;;;;;4138827;28;20552;-73
2021/05/03 07:26:49;;;;;;;5.37;2.67;;;7.00;97.00;;;;;;4130901;28;20463;-73
2021/05/03 07:28:50;;;;;;;7.90;3.17;;;7.10;96.00;;;;;;4133520;28;20970;-72
2021/05/03 07:30:57;;;;;;;5.83;2.93;;;7.10;96.50;;;;;;4136506;28;20502;-73
2021/05/03 07:32:58;;;;;;;6.43;3.50;;;7.20;96.10;;;;;;4131001;28;20470;-73
2021/05/03 07:35:00;;;;;;;5.47;2.77;;;7.20;95.50;;;;;;4135740;28;20473;-73
2021/05/03 07:37:05;;;;;;;5.33;2.50;;;7.30;95.30;;;;;;4140282;28;20481;-73
2021/05/03 07:39:06;;;;;;;5.00;2.80;;;7.40;94.90;;;;;;4133621;28;20510;-74
2021/05/03 07:41:07;;;;;;;7.30;2.90;;;7.30;94.80;;;;;;4140485;28;20465;-75
2021/05/03 07:43:08;;;;;;;4.13;2.87;;;7.30;94.10;;;;;;4144857;28;20505;-73
2021/05/03 07:45:14;;;;;;;5.53;2.60;;;7.30;94.40;;;;;;4143378;28;21051;-73
2021/05/03 07:47:16;;;;;;;5.23;2.87;;;7.30;95.20;;;;;;4133225;28;20473;-75
2021/05/03 07:49:17;;;;;;;3.50;2.60;;;7.40;96.00;;;;;;4139868;28;20484;-76
2021/05/03 07:51:19;;;;;;;3.10;1.90;;;7.50;95.50;;;;;;4137385;28;20505;-74
2021/05/03 07:53:20;;;;;;;3.23;2.20;;;7.70;93.60;;;;;;4151594;28;20496;-73
2021/05/03 07:55:21;;;;;;;4.10;2.00;;;7.70;92.10;;;;;;4142668;28;20880;-74
2021/05/03 07:57:23;;;;;;;3.53;1.90;;;7.70;92.50;;;;;;4133341;28;20480;-73
2021/05/03 07:59:24;;;;;;;3.63;1.83;;;7.70;91.30;;;;;;4131821;28;20466;-73
2021/05/03 08:01:25;;;;;;;2.83;2.00;;;7.70;91.40;;;;;;4139982;28;20473;-73
2021/05/03 08:03:27;;;;;;;2.67;1.80;;;7.80;91.40;;;;;;4135904;28;20502;-72
2021/05/03 08:05:29;;;;;;;6.43;3.63;;;7.80;91.10;;;;;;4132605;28;20470;-79
2021/05/03 08:07:31;;;;;;;15.43;6.97;;;7.90;88.30;;;;;;4141482;28;20465;-80
2021/05/03 08:09:33;;;;;;;10.17;5.13;;;8.00;87.60;;;;;;4138711;28;20457;-74
2021/05/03 08:11:34;;;;;;;4.33;1.87;;;8.00;86.50;;;;;;4133055;28;20478;-74
2021/05/03 08:13:35;;;;;;;2.87;1.90;;;8.00;86.90;;;;;;4138090;28;20494;-73
2021/05/03 08:15:36;;;;;;;2.60;1.80;;;8.10;87.80;;;;;;4136060;28;20470;-73
2021/05/03 08:17:38;;;;;;;3.90;1.70;;;8.20;87.70;;;;;;4135077;28;20459;-72
2021/05/03 08:19:39;;;;;;;4.33;1.93;;;8.20;89.10;;;;;;4137865;28;20549;-73
2021/05/03 08:21:41;;;;;;;3.30;1.80;;;8.20;88.00;;;;;;4136618;28;20482;-74
2021/05/03 08:23:43;;;;;;;4.23;2.17;;;8.20;88.00;;;;;;4135583;28;20499;-74
2021/05/03 08:25:44;;;;;;;3.83;1.80;;;8.30;87.60;;;;;;4140673;28;20486;-74
2021/05/03 08:27:45;;;;;;;5.00;2.10;;;8.30;88.90;;;;;;4142353;28;20769;-75
2021/05/03 08:29:46;;;;;;;2.83;1.70;;;8.30;90.10;;;;;;4144490;28;20830;-74
2021/05/03 08:31:48;;;;;;;3.10;1.77;;;8.30;89.50;;;;;;4136592;28;20474;-73
2021/05/03 08:33:49;;;;;;;4.93;2.10;;;8.30;86.80;;;;;;4142421;28;20910;-74
2021/05/03 08:35:51;;;;;;;2.43;1.77;;;8.30;85.80;;;;;;4138849;28;20804;-71
2021/05/03 08:37:52;;;;;;;3.13;1.90;;;8.30;86.10;;;;;;4142266;28;20501;-75
2021/05/03 08:39:54;;;;;;;5.83;2.10;;;8.50;86.50;;;;;;4140017;28;20463;-72
2021/05/03 08:41:56;;;;;;;4.30;2.10;;;8.60;87.20;;;;;;4143284;28;20216;-73
2021/05/03 08:43:58;;;;;;;3.20;1.67;;;8.60;88.80;;;;;;4137132;28;20556;-73
2021/05/03 08:45:59;;;;;;;3.43;1.80;;;8.60;86.10;;;;;;4137162;28;20211;-74
2021/05/03 08:48:06;;;;;;;5.97;2.13;;;8.50;84.20;;;;;;4136810;28;20467;-73
2021/05/03 08:50:12;;;;;;;3.10;1.87;;;8.40;83.00;;;;;;4137322;28;20231;-73
2021/05/03 08:52:16;;;;;;;2.57;1.70;;;8.30;85.20;;;;;;4140305;28;20871;-73
2021/05/03 08:54:24;;;;;;;3.23;2.20;;;8.40;86.10;;;;;;4142026;28;21161;-72
2021/05/03 08:56:26;;;;;;;4.33;1.80;;;8.50;84.90;;;;;;4135415;28;20498;-74
2021/05/03 08:58:28;;;;;;;3.30;1.67;;;8.60;82.40;;;;;;4137570;28;20643;-74
2021/05/03 09:00:29;;;;;;;5.70;1.80;;;8.70;81.20;;;;;;4137572;28;20944;-73
2021/05/03 09:02:31;;;;;;;3.67;1.67;;;8.70;79.30;;;;;;4141013;28;20470;-72
2021/05/03 09:04:33;;;;;;;2.57;1.50;;;8.80;80.20;;;;;;4141473;28;20486;-74
2021/05/03 09:06:34;;;;;;;2.90;1.77;;;8.90;80.50;;;;;;4140546;28;20204;-74
2021/05/03 09:08:35;;;;;;;3.10;1.83;;;9.10;81.60;;;;;;4142014;28;20215;-74
2021/05/03 09:10:45;;;;;;;7.13;2.30;;;9.10;79.00;;;;;;4134093;28;20259;-73
2021/05/03 09:12:48;;;;;;;3.00;1.77;;;9.10;77.20;;;;;;4133192;28;20936;-73
2021/05/03 09:14:51;;;;;;;4.13;2.10;;;9.00;76.10;;;;;;4135468;28;20610;-74
2021/05/03 09:16:53;;;;;;;2.47;1.73;;;8.90;78.80;;;;;;4133470;28;20470;-73
2021/05/03 09:18:54;;;;;;;3.07;1.80;;;9.00;78.60;;;;;;4139640;28;20277;-72
2021/05/03 09:20:56;;;;;;;7.00;2.57;;;9.00;79.80;;;;;;4141497;28;20204;-74
2021/05/03 09:23:01;;;;;;;2.37;1.60;;;8.90;80.60;;;;;;4137152;28;20516;-72
2021/05/03 09:25:21;;;;;;;2.10;1.50;;;9.00;78.50;;;;;;4136191;28;20784;-72
2021/05/03 09:27:23;;;;;;;12.33;7.07;;;9.00;76.10;;;;;;4133322;28;20216;-72
2021/05/03 09:29:27;;;;;;;41.33;20.03;;;9.00;75.50;;;;;;4136605;28;20215;-72
2021/05/03 09:31:28;;;;;;;2.70;1.80;;;9.00;76.90;;;;;;4137364;28;20235;-73
2021/05/03 09:33:31;;;;;;;3.57;2.00;;;9.20;78.60;;;;;;4135704;28;20522;-73
2021/05/03 09:35:43;;;;;;;4.60;1.93;;;9.30;78.30;;;;;;4137168;28;21113;-74
2021/05/03 09:37:45;;;;;;;2.97;2.00;;;9.40;78.10;;;;;;4133971;28;20529;-73
2021/05/03 09:39:52;;;;;;;3.90;1.70;;;9.40;78.60;;;;;;4124090;28;20598;-73
2021/05/03 09:41:53;;;;;;;3.33;1.77;;;9.60;79.20;;;;;;4133002;28;20710;-74
2021/05/03 09:43:58;;;;;;;2.50;2.03;;;9.70;77.20;;;;;;4132672;28;20228;-73
2021/05/03 09:46:00;;;;;;;3.00;1.80;;;9.80;77.60;;;;;;4140480;28;20216;-74
2021/05/03 09:48:02;;;;;;;3.10;1.33;;;9.90;75.60;;;;;;4143876;28;20747;-74
2021/05/03 09:50:05;;;;;;;2.87;1.50;;;9.80;69.80;;;;;;4142093;28;20243;-73
2021/05/03 09:52:09;;;;;;;2.40;1.43;;;9.80;69.20;;;;;;4139242;28;20962;-74
2021/05/03 09:54:16;;;;;;;2.50;1.70;;;9.80;70.60;;;;;;4138145;28;20262;-72
2021/05/03 09:56:17;;;;;;;2.57;1.60;;;9.70;70.30;;;;;;4139649;28;20215;-74
2021/05/03 09:58:20;;;;;;;1.83;1.50;;;9.80;71.20;;;;;;4137897;28;20204;-74
2021/05/03 10:00:34;;;;;;;5.47;1.80;;;9.90;74.40;;;;;;4139987;28;20657;-73
2021/05/03 10:02:36;;;;;;;2.87;1.80;;;9.90;75.30;;;;;;4140718;28;20212;-74
2021/05/03 10:04:46;;;;;;;4.73;1.80;;;10.10;72.70;;;;;;4141368;28;20654;-73
2021/05/03 10:06:47;;;;;;;3.10;1.60;;;10.20;70.20;;;;;;4144191;28;20661;-73
2021/05/03 10:08:50;;;;;;;2.40;2.07;;;10.20;71.80;;;;;;4140348;28;20212;-73
2021/05/03 10:10:53;;;;;;;3.10;1.80;;;10.30;74.10;;;;;;4139054;28;20243;-74
2021/05/03 10:12:54;;;;;;;3.40;2.00;;;10.40;71.70;;;;;;4146355;28;20203;-74
2021/05/03 10:14:58;;;;;;;3.97;2.30;;;10.40;72.40;;;;;;4136752;28;20217;-76
2021/05/03 10:16:59;;;;;;;4.50;2.30;;;10.50;71.60;;;;;;4138167;28;20617;-72
2021/05/03 10:19:01;;;;;;;3.57;2.10;;;10.50;73.80;;;;;;4134304;28;20209;-74
2021/05/03 10:21:06;;;;;;;3.20;2.00;;;10.50;71.80;;;;;;4140080;28;20215;-75
2021/05/03 10:23:08;;;;;;;3.40;1.60;;;10.60;73.00;;;;;;4124353;28;20213;-72
2021/05/03 10:25:11;;;;;;;3.93;1.73;;;10.70;69.10;;;;;;4134095;28;20217;-74
2021/05/03 10:27:13;;;;;;;4.63;1.90;;;10.70;66.30;;;;;;4133218;28;20534;-73
2021/05/03 10:29:40;;;;;;;16.50;9.03;;;10.80;70.30;;;;;;4139387;28;20220;-76
2021/05/03 10:31:57;;;;;;;20.73;9.60;;;10.80;68.30;;;;;;4134973;28;20705;-74
2021/05/03 10:33:59;;;;;;;7.67;2.07;;;10.70;63.10;;;;;;4135122;28;20292;-75
2021/05/03 10:36:02;;;;;;;2.47;1.70;;;10.70;63.10;;;;;;4131003;28;20859;-75
2021/05/03 10:38:04;;;;;;;2.37;1.43;;;10.70;63.50;;;;;;4143561;28;20379;-73
2021/05/03 10:40:29;;;;;;;4.20;1.40;;;10.80;59.70;;;;;;4139876;28;20224;-73
2021/05/03 10:42:32;;;;;;;2.20;1.60;;;11.00;58.70;;;;;;4132872;28;20278;-73
2021/05/03 10:44:35;;;;;;;2.20;1.60;;;11.30;60.50;;;;;;4146852;28;20747;-72
2021/05/03 10:49:02;;;;;;;3.47;1.50;;;11.70;59.10;;;;;;4134838;28;20205;-74
2021/05/03 10:51:07;;;;;;;4.13;1.77;;;11.90;59.00;;;;;;4134609;28;20248;-73
2021/05/03 10:53:27;;;;;;;3.57;2.00;;;12.20;59.30;;;;;;4147152;28;20222;-73